createdAt,value
2019-02-26T00:00:29.364Z,62.60
2019-02-26T00:03:01.781Z,62.60
2019-02-26T00:05:28.591Z,62.60
2019-02-26T00:08:00.164Z,62.60
2019-02-26T00:10:28.975Z,62.80
2019-02-26T00:12:58.152Z,62.90
2019-02-26T00:15:26.462Z,62.90
2019-02-26T00:17:54.811Z,62.90
2019-02-26T00:20:23.210Z,63.00
2019-02-26T00:22:53.505Z,63.00
2019-02-26T00:25:21.616Z,63.00
2019-02-26T00:27:51.873Z,63.00
2019-02-26T00:30:20.188Z,63.10
2019-02-26T00:32:48.553Z,63.20
2019-02-26T00:35:19.076Z,63.20
2019-02-26T00:37:48.821Z,63.40
2019-02-26T00:40:19.565Z,63.30
2019-02-26T00:42:50.221Z,63.50
2019-02-26T00:45:19.846Z,63.80
2019-02-26T00:47:47.142Z,63.80
2019-02-26T00:50:16.647Z,63.90
2019-02-26T00:52:45.408Z,64.00
2019-02-26T00:55:13.749Z,64.00
2019-02-26T00:57:43.015Z,64.00
2019-02-26T01:00:16.964Z,64.00
2019-02-26T01:02:45.433Z,64.10
2019-02-26T01:05:15.747Z,64.10
2019-02-26T01:07:47.446Z,64.10
2019-02-26T01:10:16.416Z,64.20
2019-02-26T01:12:45.666Z,64.20
2019-02-26T01:15:16.365Z,63.70
2019-02-26T01:17:44.686Z,64.50
2019-02-26T01:20:15.655Z,64.30
2019-02-26T01:22:45.327Z,64.40
2019-02-26T01:25:15.908Z,64.50
2019-02-26T01:27:47.566Z,64.50
2019-02-26T01:30:21.113Z,64.60
2019-02-26T01:32:45.934Z,64.60
2019-02-26T01:35:14.520Z,64.70
2019-02-26T01:37:42.812Z,64.70
2019-02-26T01:40:15.193Z,65.50
2019-02-26T01:42:47.331Z,64.70
2019-02-26T01:45:13.414Z,64.60
2019-02-26T01:47:42.831Z,64.70
2019-02-26T01:50:16.099Z,64.70
2019-02-26T01:52:44.781Z,64.80
2019-02-26T01:55:13.117Z,64.90
2019-02-26T01:57:43.471Z,65.10
2019-02-26T02:00:16.941Z,65.20
2019-02-26T02:02:45.238Z,65.10
2019-02-26T02:05:13.555Z,65.20
2019-02-26T02:07:41.866Z,65.20
2019-02-26T02:10:13.062Z,65.20
2019-02-26T02:12:41.558Z,65.20
2019-02-26T02:15:12.989Z,65.30
2019-02-26T02:17:42.380Z,65.40
2019-02-26T02:20:21.276Z,65.50
2019-02-26T02:22:46.556Z,64.80
2019-02-26T02:25:14.861Z,65.60
2019-02-26T02:27:47.692Z,64.90
2019-02-26T02:30:22.730Z,65.80
2019-02-26T02:32:51.031Z,65.70
2019-02-26T02:35:19.216Z,65.70
2019-02-26T02:37:47.538Z,65.90
2019-02-26T02:40:15.819Z,66.00
2019-02-26T02:42:46.471Z,66.00
2019-02-26T02:45:17.116Z,66.10
2019-02-26T02:47:44.844Z,66.20
2019-02-26T02:50:16.210Z,66.30
2019-02-26T02:52:44.807Z,66.30
2019-02-26T02:55:16.493Z,66.30
2019-02-26T02:57:43.399Z,66.30
2019-02-26T03:00:13.925Z,66.30
2019-02-26T03:02:43.177Z,66.30
2019-02-26T03:05:13.369Z,66.30
2019-02-26T03:07:42.377Z,66.30
2019-02-26T03:10:15.294Z,66.30
2019-02-26T03:12:47.672Z,66.40
2019-02-26T03:15:16.879Z,66.50
2019-02-26T03:17:45.323Z,66.60
2019-02-26T03:20:15.365Z,66.70
2019-02-26T03:22:48.784Z,66.80
2019-02-26T03:25:21.005Z,66.70
2019-02-26T03:27:47.876Z,66.80
2019-02-26T03:30:26.325Z,66.80
2019-02-26T03:32:55.929Z,67.00
2019-02-26T03:35:22.224Z,66.90
2019-02-26T03:37:51.495Z,66.90
2019-02-26T03:40:20.923Z,66.90
2019-02-26T03:42:49.168Z,66.90
2019-02-26T03:45:23.577Z,67.00
2019-02-26T03:47:47.461Z,67.00
2019-02-26T03:50:16.554Z,67.10
2019-02-26T03:52:45.086Z,67.10
2019-02-26T03:55:15.382Z,67.10
2019-02-26T03:57:47.313Z,67.20
2019-02-26T04:00:17.423Z,67.20
2019-02-26T04:02:49.062Z,67.20
2019-02-26T04:05:16.403Z,67.20
2019-02-26T04:07:44.705Z,67.20
2019-02-26T04:10:13.660Z,68.10
2019-02-26T04:12:44.629Z,67.30
2019-02-26T04:15:24.241Z,67.40
2019-02-26T04:17:50.576Z,67.30
2019-02-26T04:20:18.868Z,67.40
2019-02-26T04:22:49.903Z,67.40
2019-02-26T04:25:27.004Z,67.50
2019-02-26T04:28:08.092Z,67.50
2019-02-26T04:30:50.256Z,67.50
2019-02-26T04:33:41.658Z,67.50
2019-02-26T04:36:22.431Z,67.50
2019-02-26T04:39:07.648Z,67.40
2019-02-26T04:41:53.710Z,67.40
2019-02-26T04:44:41.992Z,67.40
2019-02-26T04:47:10.736Z,67.50
2019-02-26T04:49:42.541Z,67.40
2019-02-26T04:52:10.916Z,67.60
2019-02-26T04:54:39.649Z,67.70
2019-02-26T04:57:08.054Z,67.90
2019-02-26T04:59:38.731Z,67.90
2019-02-26T05:02:06.586Z,68.00
2019-02-26T05:04:36.824Z,68.00
2019-02-26T05:07:08.020Z,68.10
2019-02-26T05:09:35.617Z,68.10
2019-02-26T05:12:09.784Z,68.20
2019-02-26T05:14:34.592Z,68.30
2019-02-26T05:17:03.250Z,68.20
2019-02-26T05:19:31.549Z,68.30
2019-02-26T05:22:01.669Z,68.00
2019-02-26T05:24:30.046Z,68.50
2019-02-26T05:26:58.347Z,68.50
2019-02-26T05:29:26.656Z,68.50
2019-02-26T05:32:09.310Z,68.60
2019-02-26T05:34:39.688Z,68.50
2019-02-26T05:37:08.796Z,68.60
2019-02-26T05:39:37.729Z,68.60
2019-02-26T05:42:06.306Z,68.70
2019-02-26T05:44:34.953Z,68.70
2019-02-26T05:47:03.392Z,68.70
2019-02-26T05:49:34.527Z,68.80
2019-02-26T05:52:04.102Z,68.80
2019-02-26T05:54:35.084Z,68.90
2019-02-26T05:57:06.583Z,68.90
2019-02-26T05:59:34.395Z,68.90
2019-02-26T06:02:02.685Z,68.90
2019-02-26T06:04:32.019Z,68.90
2019-02-26T06:07:02.198Z,69.00
2019-02-26T06:09:33.711Z,69.10
2019-02-26T06:12:01.088Z,69.10
2019-02-26T06:14:31.190Z,69.20
2019-02-26T06:16:59.528Z,69.20
2019-02-26T06:19:42.323Z,69.20
2019-02-26T06:22:14.419Z,69.30
2019-02-26T06:24:40.621Z,69.20
2019-02-26T06:27:13.090Z,69.40
2019-02-26T06:29:39.047Z,69.30
2019-02-26T06:32:17.076Z,69.30
2019-02-26T06:34:45.362Z,69.40
2019-02-26T06:37:16.688Z,69.30
2019-02-26T06:39:45.132Z,69.50
2019-02-26T06:42:14.509Z,70.60
2019-02-26T06:44:43.735Z,69.60
2019-02-26T06:47:13.102Z,69.60
2019-02-26T06:49:43.241Z,69.70
2019-02-26T06:52:13.101Z,69.80
2019-02-26T06:54:41.777Z,69.70
2019-02-26T06:57:10.086Z,69.80
2019-02-26T06:59:38.389Z,70.20
2019-02-26T07:02:08.800Z,69.90
2019-02-26T07:04:36.721Z,69.90
2019-02-26T07:07:07.750Z,69.90
2019-02-26T07:09:36.866Z,70.00
2019-02-26T07:12:05.756Z,70.10
2019-02-26T07:14:34.506Z,70.00
2019-02-26T07:17:02.926Z,70.10
2019-02-26T07:19:33.121Z,70.20
2019-02-26T07:22:01.382Z,70.20
2019-02-26T07:24:29.879Z,71.00
2019-02-26T07:26:58.168Z,70.90
2019-02-26T07:29:30.665Z,70.10
2019-02-26T07:31:57.002Z,70.00
2019-02-26T07:34:27.356Z,70.00
2019-02-26T07:36:56.023Z,69.80
2019-02-26T07:39:24.412Z,69.80
2019-02-26T07:41:54.371Z,70.60
2019-02-26T07:44:24.139Z,69.80
2019-02-26T07:46:53.156Z,69.80
2019-02-26T07:49:21.618Z,69.80
2019-02-26T07:51:50.048Z,69.80
2019-02-26T07:54:18.549Z,70.90
2019-02-26T07:56:46.953Z,69.80
2019-02-26T07:59:15.263Z,69.90
2019-02-26T08:01:45.244Z,69.90
2019-02-26T08:04:15.983Z,69.90
2019-02-26T08:06:43.695Z,69.80
2019-02-26T08:09:14.009Z,69.80
2019-02-26T08:11:43.904Z,69.80
2019-02-26T08:14:14.330Z,69.80
2019-02-26T08:16:42.197Z,69.90
2019-02-26T08:19:10.518Z,69.90
2019-02-26T08:21:38.844Z,69.90
2019-02-26T08:24:07.198Z,69.80
2019-02-26T08:26:35.517Z,69.80
2019-02-26T08:29:05.669Z,69.90
2019-02-26T08:31:34.462Z,70.00
2019-02-26T08:34:02.858Z,69.80
2019-02-26T08:36:31.240Z,69.80
2019-02-26T08:38:59.630Z,69.80
2019-02-26T08:41:27.963Z,69.80
2019-02-26T08:43:58.709Z,69.70
2019-02-26T08:46:26.573Z,69.80
2019-02-26T08:48:55.139Z,69.70
2019-02-26T08:51:23.453Z,69.60
2019-02-26T08:53:54.454Z,69.60
2019-02-26T08:56:23.894Z,69.50
2019-02-26T08:58:51.904Z,69.40
2019-02-26T09:01:20.268Z,69.40
2019-02-26T09:03:50.716Z,69.30
2019-02-26T09:06:18.630Z,69.10
2019-02-26T09:08:47.017Z,69.10
2019-02-26T09:11:15.316Z,69.00
2019-02-26T09:13:43.991Z,68.90
2019-02-26T09:16:12.383Z,68.90
2019-02-26T09:18:40.771Z,68.70
2019-02-26T09:21:10.243Z,69.30
2019-02-26T09:23:39.119Z,68.40
2019-02-26T09:26:07.479Z,68.30
2019-02-26T09:28:35.780Z,68.10
2019-02-26T09:31:06.671Z,67.80
2019-02-26T09:33:35.605Z,67.70
2019-02-26T09:36:04.775Z,67.50
2019-02-26T09:38:33.101Z,67.40
2019-02-26T09:41:01.409Z,67.20
2019-02-26T09:43:29.917Z,67.00
2019-02-26T09:45:58.297Z,66.80
2019-02-26T09:48:26.595Z,66.50
2019-02-26T09:50:54.885Z,66.20
2019-02-26T09:53:23.269Z,66.00
2019-02-26T09:55:51.585Z,65.70
2019-02-26T09:58:21.052Z,65.40
2019-02-26T10:00:51.132Z,65.20
2019-02-26T10:03:20.055Z,64.80
2019-02-26T10:05:50.816Z,64.60
2019-02-26T10:08:19.992Z,64.40
2019-02-26T10:10:48.502Z,64.10
2019-02-26T10:13:18.286Z,63.90
2019-02-26T10:15:46.865Z,63.80
2019-02-26T10:18:15.167Z,63.60
2019-02-26T10:20:47.026Z,63.20
2019-02-26T10:23:13.501Z,62.80
2019-02-26T10:25:41.818Z,63.40
2019-02-26T10:28:11.579Z,62.30
2019-02-26T10:30:41.694Z,62.10
2019-02-26T10:33:10.193Z,61.80
2019-02-26T10:35:39.654Z,61.60
2019-02-26T10:38:11.491Z,61.20
2019-02-26T10:40:50.521Z,61.00
2019-02-26T10:43:09.141Z,60.70
2019-02-26T10:45:41.539Z,60.40
2019-02-26T10:48:07.517Z,60.20
2019-02-26T10:50:37.258Z,60.00
2019-02-26T10:53:10.292Z,59.90
2019-02-26T10:55:39.349Z,59.60
2019-02-26T10:58:10.001Z,59.50
2019-02-26T11:00:37.818Z,59.30
2019-02-26T11:03:06.682Z,59.00
2019-02-26T11:05:37.724Z,58.80
2019-02-26T11:08:09.191Z,58.60
2019-02-26T11:10:39.468Z,58.40
2019-02-26T11:13:06.339Z,58.60
2019-02-26T11:15:35.981Z,58.10
2019-02-26T11:18:05.934Z,58.00
2019-02-26T11:20:36.456Z,57.90
2019-02-26T11:23:08.004Z,57.80
2019-02-26T11:25:36.980Z,57.60
2019-02-26T11:28:07.390Z,57.30
2019-02-26T11:30:35.608Z,57.00
2019-02-26T11:33:06.084Z,56.80
2019-02-26T11:35:34.930Z,56.70
2019-02-26T11:38:03.267Z,56.60
2019-02-26T11:40:31.743Z,56.50
2019-02-26T11:43:08.512Z,56.80
2019-02-26T11:45:32.240Z,56.30
2019-02-26T11:48:00.974Z,56.30
2019-02-26T11:50:30.165Z,56.10
2019-02-26T11:52:58.525Z,56.40
2019-02-26T11:55:29.193Z,56.00
2019-02-26T11:57:56.968Z,55.70
2019-02-26T12:00:42.802Z,55.40
2019-02-26T12:03:10.043Z,55.30
2019-02-26T12:05:41.279Z,55.20
2019-02-26T12:08:08.537Z,55.00
2019-02-26T12:10:37.823Z,54.80
2019-02-26T12:13:06.902Z,54.60
2019-02-26T12:15:36.290Z,53.80
2019-02-26T12:18:05.239Z,54.10
2019-02-26T12:20:35.562Z,54.00
2019-02-26T12:23:04.440Z,53.90
2019-02-26T12:25:33.640Z,53.60
2019-02-26T12:28:02.874Z,53.30
2019-02-26T12:30:51.397Z,53.00
2019-02-26T12:33:19.710Z,52.70
2019-02-26T12:35:48.011Z,52.80
2019-02-26T12:38:18.792Z,52.50
2019-02-26T12:40:47.162Z,52.20
2019-02-26T12:43:19.197Z,52.10
2019-02-26T12:45:46.728Z,51.90
2019-02-26T12:48:19.148Z,51.70
2019-02-26T12:50:45.093Z,51.70
2019-02-26T12:53:17.220Z,51.50
2019-02-26T12:55:43.582Z,51.50
2019-02-26T12:58:17.650Z,51.60
2019-02-26T13:00:44.915Z,51.60
2019-02-26T13:03:15.775Z,51.50
2019-02-26T13:05:45.579Z,51.60
2019-02-26T13:08:16.639Z,51.50
2019-02-26T13:10:46.687Z,51.40
2019-02-26T13:13:13.498Z,51.50
2019-02-26T13:15:41.788Z,52.00
2019-02-26T13:18:10.244Z,51.60
2019-02-26T13:20:38.530Z,51.30
2019-02-26T13:23:17.145Z,51.30
2019-02-26T13:34:33.976Z,51.00
2019-02-26T13:37:02.277Z,52.00
2019-02-26T13:39:38.222Z,51.00
2019-02-26T13:42:09.136Z,51.40
2019-02-26T13:44:30.730Z,51.30
2019-02-26T13:46:59.038Z,50.90
2019-02-26T13:49:27.450Z,51.10
2019-02-26T13:51:55.890Z,50.90
2019-02-26T13:54:24.209Z,50.90
2019-02-26T13:56:52.580Z,50.80
2019-02-26T13:59:20.959Z,50.80
2019-02-26T14:01:49.654Z,50.50
2019-02-26T14:04:17.983Z,50.50
2019-02-26T14:06:46.319Z,50.40
2019-02-26T14:09:14.791Z,50.30
2019-02-26T14:11:43.271Z,50.20
2019-02-26T14:14:11.782Z,50.10
2019-02-26T14:16:40.126Z,50.00
2019-02-26T14:19:08.516Z,50.00
2019-02-26T14:21:36.995Z,49.80
2019-02-26T14:24:05.530Z,49.80
2019-02-26T14:26:33.873Z,49.60
2019-02-26T14:29:02.192Z,49.60
2019-02-26T14:31:30.607Z,49.50
2019-02-26T14:33:58.987Z,49.40
2019-02-26T14:36:27.282Z,49.40
2019-02-26T14:38:55.623Z,49.40
2019-02-26T14:41:24.023Z,49.40
2019-02-26T14:43:52.421Z,49.30
2019-02-26T14:46:20.731Z,49.40
2019-02-26T14:48:49.158Z,49.30
2019-02-26T14:51:17.811Z,49.50
2019-02-26T14:53:47.051Z,49.30
2019-02-26T14:56:15.354Z,49.10
2019-02-26T14:58:43.668Z,49.30
2019-02-26T15:01:12.066Z,49.30
2019-02-26T15:03:40.454Z,49.40
2019-02-26T15:06:09.250Z,49.30
2019-02-26T15:08:37.692Z,49.10
2019-02-26T15:11:06.387Z,49.10
2019-02-26T15:13:34.833Z,49.20
2019-02-26T15:18:42.433Z,49.10
2019-02-26T15:21:10.903Z,48.70
2019-02-26T15:23:39.201Z,49.70
2019-02-26T15:26:07.658Z,48.90
2019-02-26T15:28:36.017Z,48.80
2019-02-26T15:31:05.328Z,48.80
2019-02-26T15:33:33.613Z,48.70
2019-02-26T15:36:01.975Z,48.70
2019-02-26T15:38:30.333Z,48.20
2019-02-26T15:40:58.684Z,48.70
2019-02-26T15:43:27.657Z,48.80
2019-02-26T15:45:57.762Z,48.70
2019-02-26T15:48:26.130Z,48.80
2019-02-26T15:50:55.162Z,48.80
2019-02-26T15:53:24.368Z,48.80
2019-02-26T15:55:53.125Z,48.70
2019-02-26T15:58:22.121Z,48.60
2019-02-26T16:00:50.471Z,48.60
2019-02-26T16:03:18.937Z,48.50
2019-02-26T16:05:47.318Z,48.60
2019-02-26T16:08:15.761Z,48.50
2019-02-26T16:10:44.096Z,48.50
2019-02-26T16:13:14.889Z,48.50
2019-02-26T16:15:43.277Z,48.70
2019-02-26T16:18:11.818Z,48.70
2019-02-26T16:20:40.206Z,48.30
2019-02-26T16:23:08.664Z,48.90
2019-02-26T16:25:37.050Z,48.80
2019-02-26T16:28:05.362Z,48.80
2019-02-26T16:30:33.740Z,48.90
2019-02-26T16:33:02.133Z,48.90
2019-02-26T16:35:30.555Z,49.10
2019-02-26T16:37:59.017Z,49.10
2019-02-26T16:40:31.399Z,49.20
2019-02-26T16:42:57.392Z,50.10
2019-02-26T16:45:26.944Z,49.50
2019-02-26T16:47:57.417Z,49.00
2019-02-26T16:50:28.643Z,49.60
2019-02-26T16:52:57.965Z,49.70
2019-02-26T16:55:27.156Z,49.80
2019-02-26T16:57:55.564Z,50.10
2019-02-26T17:00:27.709Z,50.30
2019-02-26T17:02:59.780Z,50.40
2019-02-26T17:05:26.121Z,50.50
2019-02-26T17:07:55.169Z,50.60
2019-02-26T17:10:29.081Z,50.80
2019-02-26T17:12:55.829Z,50.90
2019-02-26T17:15:31.690Z,51.10
2019-02-26T17:18:00.060Z,51.20
2019-02-26T17:20:28.491Z,51.40
2019-02-26T17:22:56.916Z,51.50
2019-02-26T17:25:28.637Z,51.60
2019-02-26T17:27:55.492Z,51.90
2019-02-26T17:30:24.669Z,52.00
2019-02-26T17:32:53.273Z,52.80
2019-02-26T17:35:21.685Z,52.40
2019-02-26T17:37:50.529Z,52.60
2019-02-26T17:40:20.396Z,52.80
2019-02-26T17:42:50.951Z,52.90
2019-02-26T17:45:24.569Z,53.20
2019-02-26T17:47:56.534Z,53.30
2019-02-26T17:50:39.285Z,53.40
2019-02-26T17:56:44.511Z,53.50
2019-02-26T17:59:16.562Z,53.80
2019-02-26T18:01:43.041Z,53.90
2019-02-26T18:04:11.412Z,54.10
2019-02-26T18:06:39.958Z,54.40
2019-02-26T18:09:08.348Z,54.50
2019-02-26T18:11:36.901Z,54.50
2019-02-26T18:15:21.513Z,55.10
2019-02-26T18:17:51.080Z,54.80
2019-02-26T18:20:20.133Z,55.10
2019-02-26T18:22:48.482Z,55.20
2019-02-26T18:25:19.487Z,55.40
2019-02-26T18:27:47.881Z,55.00
2019-02-26T18:30:21.782Z,55.70
2019-02-26T18:32:50.720Z,55.80
2019-02-26T18:35:20.198Z,55.50
2019-02-26T18:37:48.536Z,56.30
2019-02-26T18:40:17.788Z,56.60
2019-02-26T18:42:46.782Z,56.40
2019-02-26T18:45:44.966Z,56.50
2019-02-26T18:48:15.095Z,56.70
2019-02-26T18:50:43.376Z,56.90
2019-02-26T18:53:13.971Z,57.00
2019-02-26T18:55:43.805Z,57.10
2019-02-26T18:58:13.733Z,57.20
2019-02-26T19:00:41.876Z,57.40
2019-02-26T19:03:10.242Z,57.50
2019-02-26T19:05:58.214Z,57.60
2019-02-26T19:08:26.540Z,57.70
2019-02-26T19:10:54.842Z,57.80
2019-02-26T19:13:23.252Z,57.90
2019-02-26T19:15:51.586Z,58.00
2019-02-26T19:18:19.919Z,58.20
2019-02-26T19:20:49.114Z,58.30
2019-02-26T19:23:18.208Z,58.40
2019-02-26T19:25:46.546Z,58.50
2019-02-26T19:28:14.934Z,58.60
2019-02-26T19:30:43.332Z,58.60
2019-02-26T19:33:11.735Z,58.90
2019-02-26T19:35:40.517Z,58.90
2019-02-26T19:38:30.797Z,59.10
2019-02-26T19:41:02.472Z,59.10
2019-02-26T19:43:30.944Z,59.10
2019-02-26T19:45:59.271Z,59.20
2019-02-26T19:48:30.421Z,59.40
2019-02-26T19:50:57.700Z,59.50
2019-02-26T19:53:26.469Z,59.60
2019-02-26T19:55:54.837Z,59.80
2019-02-26T19:58:23.201Z,59.60
2019-02-26T20:00:53.170Z,60.00
2019-02-26T20:03:23.245Z,60.00
2019-02-26T20:05:51.588Z,60.20
2019-02-26T20:08:19.913Z,60.30
2019-02-26T20:10:50.899Z,60.40
2019-02-26T20:13:18.304Z,60.50
2019-02-26T20:15:46.753Z,60.60
2019-02-26T20:18:20.779Z,60.60
2019-02-26T20:20:45.942Z,60.80
2019-02-26T20:23:15.030Z,60.90
2019-02-26T20:25:43.421Z,61.10
2019-02-26T20:28:14.849Z,61.30
2019-02-26T20:30:43.157Z,61.20
2019-02-26T20:33:11.577Z,61.40
2019-02-26T20:35:40.162Z,61.40
2019-02-26T20:38:08.511Z,61.50
2019-02-26T20:40:36.820Z,61.60
2019-02-26T20:43:05.522Z,61.60
2019-02-26T20:45:33.850Z,61.70
2019-02-26T20:48:04.782Z,61.80
2019-02-26T20:50:33.304Z,61.80
2019-02-26T20:53:05.625Z,61.90
2019-02-26T20:55:33.724Z,62.10
2019-02-26T20:58:02.355Z,62.20
2019-02-26T21:00:30.730Z,62.20
2019-02-26T21:02:59.140Z,62.40
2019-02-26T21:05:27.450Z,62.40
2019-02-26T21:07:58.279Z,62.70
2019-02-26T21:10:26.011Z,62.60
2019-02-26T21:12:54.305Z,62.70
2019-02-26T21:15:24.232Z,62.80
2019-02-26T21:17:52.616Z,62.80
2019-02-26T21:20:21.306Z,62.90
2019-02-26T21:22:49.682Z,63.00
2019-02-26T21:25:18.061Z,63.00
2019-02-26T21:27:46.450Z,63.10
2019-02-26T21:30:24.729Z,63.20
2019-02-26T21:32:53.069Z,63.30
2019-02-26T21:35:21.454Z,63.40
2019-02-26T21:37:49.814Z,63.60
2019-02-26T21:40:18.158Z,63.60
2019-02-26T21:42:46.467Z,63.70
2019-02-26T21:45:17.146Z,63.70
2019-02-26T21:47:45.645Z,63.80
2019-02-26T21:50:16.037Z,63.90
2019-02-26T21:52:44.350Z,64.00
2019-02-26T21:55:13.957Z,64.20
2019-02-26T21:59:54.796Z,64.20
2019-02-26T22:02:23.263Z,64.00
2019-02-26T22:04:51.734Z,64.20
2019-02-26T22:07:20.088Z,64.30
2019-02-26T22:09:48.394Z,64.40
2019-02-26T22:12:16.703Z,64.50
2019-02-26T22:14:45.081Z,64.60
2019-02-26T22:17:14.107Z,64.80
2019-02-26T22:19:42.566Z,64.80
2019-02-26T22:22:10.903Z,64.80
2019-02-26T22:24:40.691Z,64.90
2019-02-26T22:27:09.289Z,64.40
2019-02-26T22:29:37.612Z,65.00
2019-02-26T22:32:05.905Z,65.20
2019-02-26T22:34:34.214Z,65.30
2019-02-26T22:37:07.053Z,65.30
2019-02-26T22:39:32.626Z,65.30
2019-02-26T22:42:00.925Z,65.40
2019-02-26T22:44:29.270Z,65.40
2019-02-26T22:46:59.118Z,65.60
2019-02-26T22:49:27.553Z,65.70
2019-02-26T22:51:58.446Z,65.70
2019-02-26T22:54:25.979Z,65.80
2019-02-26T22:56:56.667Z,65.80
2019-02-26T22:59:24.384Z,66.00
2019-02-26T23:01:53.208Z,65.90
2019-02-26T23:04:21.513Z,66.00
2019-02-26T23:06:49.882Z,66.10
2019-02-26T23:09:19.532Z,66.20
2019-02-26T23:11:47.844Z,66.10
2019-02-26T23:14:16.197Z,66.10
2019-02-26T23:16:44.958Z,66.10
2019-02-26T23:19:13.469Z,66.10
2019-02-26T23:21:42.321Z,66.10
2019-02-26T23:24:10.686Z,66.20
2019-02-26T23:26:41.830Z,66.20
2019-02-26T23:29:09.598Z,66.20
2019-02-26T23:31:49.817Z,66.30
2019-02-26T23:34:21.952Z,66.30
2019-02-26T23:36:48.208Z,66.40
2019-02-26T23:39:16.503Z,66.50
2019-02-26T23:41:44.912Z,66.50
2019-02-26T23:44:17.760Z,66.50
2019-02-26T23:46:43.802Z,66.50
2019-02-26T23:49:14.147Z,66.60
2019-02-26T23:51:43.465Z,66.80
2019-02-26T23:54:11.749Z,66.90
2019-02-26T23:56:40.066Z,66.90
2019-02-26T23:59:08.389Z,67.00
